Terminal Aerodrome Forecast
Issued by NWS Grand Forks, ND

Home | Current Version | Previous Version | Text Only | Print | Product List | Glossary Off
Versions: 1 2 3 4 5 6 7 8 9 10 11 12 13 14 15 16

000
FTUS43 KFGF 170955 AAA
TAFFAR
TAF AMD
KFAR 170955Z 1710/1806 34009KT P6SM SCT006 OVC014
      TEMPO 1710/1712 4SM BR BKN006
     FM171400 34010KT P6SM SCT008
     FM172000 34010KT P6SM FEW200=

USA.gov is the U.S. government's official web portal to all federal, state and local government web resources and services.